This is the latest recevied weather packets stored in our database for station/object EA7AIS-10. If no packets are shown the sender has not sent any weather packets the latest 10 day(s).
| Time | Temp. | Humidity | Pressure | Rain* | Wind** | Luminosity | Snow |
|---|---|---|---|---|---|---|---|
| 1777306539 | 17.78° C | 85% | 1011 hPa | - | - | - | - |
| 1777305639 | 18.33° C | 83% | 1010.9 hPa | - | - | - | - |
| 1777304739 | 18.33° C | 84% | 1010.9 hPa | - | - | - | - |
| 1777303839 | 18.33° C | 83% | 1011 hPa | - | - | - | - |
| 1777302939 | 18.89° C | 82% | 1011 hPa | - | - | - | - |
| 1777302038 | 18.89° C | 83% | 1011.2 hPa | - | - | - | - |
| 1777301138 | 18.33° C | 85% | 1011.3 hPa | - | - | - | - |
| 1777300238 | 18.33° C | 87% | 1011.6 hPa | - | - | - | - |
| 1777299338 | 18.33° C | 83% | 1011.7 hPa | - | - | - | - |
| 1777298438 | 18.33° C | 83% | 1011.8 hPa | - | - | - | - |
| 1777297538 | 18.89° C | 80% | 1011.9 hPa | - | - | - | - |
| 1777296638 | 19.44° C | 75% | 1012 hPa | - | - | - | - |
| 1777295738 | 20° C | 74% | 1011.9 hPa | - | - | - | - |
| 1777294839 | 18.33° C | 80% | 1012.2 hPa | - | - | - | - |
| 1777293938 | 18.33° C | 85% | 1012.3 hPa | - | - | - | - |
| 1777293038 | 18.33° C | 85% | 1012.5 hPa | - | - | - | - |
| 1777292138 | 18.33° C | 84% | 1012.5 hPa | - | - | - | - |
| 1777291239 | 18.33° C | 85% | 1012.6 hPa | - | - | - | - |
| 1777290338 | 18.33° C | 84% | 1012.9 hPa | - | - | - | - |
| 1777289438 | 18.89° C | 83% | 1013 hPa | - | - | - | - |
| 1777288539 | 18.33° C | 84% | 1013 hPa | - | - | - | - |
| 1777287638 | 18.89° C | 82% | 1013.1 hPa | - | - | - | - |
| 1777286737 | 18.89° C | 83% | 1013.2 hPa | - | - | - | - |
| 1777285837 | 18.33° C | 83% | 1013.2 hPa | - | - | - | - |
| 1777284937 | 17.78° C | 87% | 1013.4 hPa | - | - | - | - |
* Rain since midnight (hover to see other rain measurements)
** Current wind speed in m/s (hover to see current wind gust speed)